sensor_id;sensor_type;location;lat;lon;timestamp;temperature;humidity
298;DHT22;133;49.626;9.680;2024-02-04T00:00:58;8.10;98.70
298;DHT22;133;49.626;9.680;2024-02-04T00:03:24;8.10;98.70
298;DHT22;133;49.626;9.680;2024-02-04T00:05:49;8.10;98.70
298;DHT22;133;49.626;9.680;2024-02-04T00:08:15;8.10;98.70
298;DHT22;133;49.626;9.680;2024-02-04T00:10:42;8.10;98.70
298;DHT22;133;49.626;9.680;2024-02-04T00:13:08;8.10;98.70
298;DHT22;133;49.626;9.680;2024-02-04T00:15:33;8.10;98.70
298;DHT22;133;49.626;9.680;2024-02-04T00:17:59;8.00;98.70
298;DHT22;133;49.626;9.680;2024-02-04T00:20:25;8.00;98.70
298;DHT22;133;49.626;9.680;2024-02-04T00:22:52;8.00;98.70
298;DHT22;133;49.626;9.680;2024-02-04T00:25:18;8.00;98.70
298;DHT22;133;49.626;9.680;2024-02-04T00:27:44;8.00;98.70
298;DHT22;133;49.626;9.680;2024-02-04T00:30:10;8.00;98.70
298;DHT22;133;49.626;9.680;2024-02-04T00:32:36;8.00;98.70
298;DHT22;133;49.626;9.680;2024-02-04T00:35:01;8.10;98.70
298;DHT22;133;49.626;9.680;2024-02-04T00:37:28;8.00;98.70
298;DHT22;133;49.626;9.680;2024-02-04T00:39:53;8.00;98.70
298;DHT22;133;49.626;9.680;2024-02-04T00:42:19;8.00;98.70
298;DHT22;133;49.626;9.680;2024-02-04T00:44:45;8.10;98.70
298;DHT22;133;49.626;9.680;2024-02-04T00:47:10;8.10;98.70
298;DHT22;133;49.626;9.680;2024-02-04T00:49:36;8.10;98.70
298;DHT22;133;49.626;9.680;2024-02-04T00:52:02;8.00;98.70
298;DHT22;133;49.626;9.680;2024-02-04T00:54:27;8.00;98.70
298;DHT22;133;49.626;9.680;2024-02-04T00:56:53;7.90;98.70
298;DHT22;133;49.626;9.680;2024-02-04T00:59:19;7.90;98.70
298;DHT22;133;49.626;9.680;2024-02-04T01:01:45;7.90;98.70
298;DHT22;133;49.626;9.680;2024-02-04T01:04:10;7.90;98.70
298;DHT22;133;49.626;9.680;2024-02-04T01:06:36;7.90;98.70
298;DHT22;133;49.626;9.680;2024-02-04T01:09:01;8.00;98.70
298;DHT22;133;49.626;9.680;2024-02-04T01:11:27;8.00;98.70
298;DHT22;133;49.626;9.680;2024-02-04T01:13:54;8.00;98.70
298;DHT22;133;49.626;9.680;2024-02-04T01:16:20;8.00;98.70
298;DHT22;133;49.626;9.680;2024-02-04T01:18:46;8.00;98.70
298;DHT22;133;49.626;9.680;2024-02-04T01:21:11;8.00;98.70
298;DHT22;133;49.626;9.680;2024-02-04T01:23:37;7.90;98.70
298;DHT22;133;49.626;9.680;2024-02-04T01:26:02;7.90;98.70
298;DHT22;133;49.626;9.680;2024-02-04T01:28:28;7.90;98.70
298;DHT22;133;49.626;9.680;2024-02-04T01:30:54;7.90;98.70
298;DHT22;133;49.626;9.680;2024-02-04T01:33:19;7.80;98.70
298;DHT22;133;49.626;9.680;2024-02-04T01:35:45;7.90;98.70
298;DHT22;133;49.626;9.680;2024-02-04T01:38:11;7.90;98.70
298;DHT22;133;49.626;9.680;2024-02-04T01:40:36;7.90;98.70
298;DHT22;133;49.626;9.680;2024-02-04T01:43:02;7.90;98.70
298;DHT22;133;49.626;9.680;2024-02-04T01:45:28;7.80;98.70
298;DHT22;133;49.626;9.680;2024-02-04T01:47:54;7.80;98.70
298;DHT22;133;49.626;9.680;2024-02-04T01:50:20;7.90;98.70
298;DHT22;133;49.626;9.680;2024-02-04T01:52:46;7.80;98.70
298;DHT22;133;49.626;9.680;2024-02-04T01:55:12;7.80;98.70
298;DHT22;133;49.626;9.680;2024-02-04T01:57:39;7.90;98.70
298;DHT22;133;49.626;9.680;2024-02-04T02:00:06;7.80;98.70
298;DHT22;133;49.626;9.680;2024-02-04T02:02:41;7.80;98.70
298;DHT22;133;49.626;9.680;2024-02-04T02:05:07;7.90;98.70
298;DHT22;133;49.626;9.680;2024-02-04T02:07:34;7.90;98.70
298;DHT22;133;49.626;9.680;2024-02-04T02:09:59;7.80;98.70
298;DHT22;133;49.626;9.680;2024-02-04T02:12:39;7.80;98.70
298;DHT22;133;49.626;9.680;2024-02-04T02:15:20;7.80;98.70
298;DHT22;133;49.626;9.680;2024-02-04T02:18:06;7.80;98.70
298;DHT22;133;49.626;9.680;2024-02-04T02:21:08;7.80;98.70
298;DHT22;133;49.626;9.680;2024-02-04T02:24:36;7.80;98.70
298;DHT22;133;49.626;9.680;2024-02-04T02:26:42;7.80;98.70
298;DHT22;133;49.626;9.680;2024-02-04T02:29:09;7.80;98.70
298;DHT22;133;49.626;9.680;2024-02-04T02:31:40;7.80;98.70
298;DHT22;133;49.626;9.680;2024-02-04T02:34:06;7.80;98.70
298;DHT22;133;49.626;9.680;2024-02-04T02:36:44;7.80;98.70
298;DHT22;133;49.626;9.680;2024-02-04T02:39:27;7.90;98.70
298;DHT22;133;49.626;9.680;2024-02-04T02:41:59;7.80;98.70
298;DHT22;133;49.626;9.680;2024-02-04T02:44:27;7.80;98.70
298;DHT22;133;49.626;9.680;2024-02-04T02:46:55;7.80;98.70
298;DHT22;133;49.626;9.680;2024-02-04T02:49:22;7.80;98.70
298;DHT22;133;49.626;9.680;2024-02-04T02:51:47;7.80;98.70
298;DHT22;133;49.626;9.680;2024-02-04T02:54:13;7.80;98.70
298;DHT22;133;49.626;9.680;2024-02-04T02:56:38;7.80;98.70
298;DHT22;133;49.626;9.680;2024-02-04T02:59:04;7.80;98.70
298;DHT22;133;49.626;9.680;2024-02-04T03:01:30;7.70;98.70
298;DHT22;133;49.626;9.680;2024-02-04T03:03:56;7.70;98.70
298;DHT22;133;49.626;9.680;2024-02-04T03:06:22;7.70;98.70
298;DHT22;133;49.626;9.680;2024-02-04T03:08:47;7.70;98.70
298;DHT22;133;49.626;9.680;2024-02-04T03:11:13;7.70;98.70
298;DHT22;133;49.626;9.680;2024-02-04T03:13:39;7.70;98.70
298;DHT22;133;49.626;9.680;2024-02-04T03:16:12;7.70;98.70
298;DHT22;133;49.626;9.680;2024-02-04T03:18:41;7.80;98.70
298;DHT22;133;49.626;9.680;2024-02-04T03:21:16;7.70;98.70
298;DHT22;133;49.626;9.680;2024-02-04T03:23:43;7.70;98.70
298;DHT22;133;49.626;9.680;2024-02-04T03:26:10;7.80;98.70
298;DHT22;133;49.626;9.680;2024-02-04T03:28:36;7.80;98.70
298;DHT22;133;49.626;9.680;2024-02-04T03:31:01;7.70;98.70
298;DHT22;133;49.626;9.680;2024-02-04T03:33:27;7.70;98.70
298;DHT22;133;49.626;9.680;2024-02-04T03:35:53;7.70;98.70
298;DHT22;133;49.626;9.680;2024-02-04T03:38:18;7.70;98.70
298;DHT22;133;49.626;9.680;2024-02-04T03:40:44;7.70;98.70
298;DHT22;133;49.626;9.680;2024-02-04T03:43:10;7.70;98.70
298;DHT22;133;49.626;9.680;2024-02-04T03:45:36;7.70;98.70
298;DHT22;133;49.626;9.680;2024-02-04T03:48:02;7.70;98.70
298;DHT22;133;49.626;9.680;2024-02-04T03:50:28;7.70;98.70
298;DHT22;133;49.626;9.680;2024-02-04T03:52:53;7.70;98.70
298;DHT22;133;49.626;9.680;2024-02-04T03:55:19;7.70;98.70
298;DHT22;133;49.626;9.680;2024-02-04T03:57:45;7.60;98.70
298;DHT22;133;49.626;9.680;2024-02-04T04:00:11;7.70;98.70
298;DHT22;133;49.626;9.680;2024-02-04T04:02:37;7.60;98.70
298;DHT22;133;49.626;9.680;2024-02-04T04:05:02;7.60;98.70
298;DHT22;133;49.626;9.680;2024-02-04T04:07:28;7.60;98.70
298;DHT22;133;49.626;9.680;2024-02-04T04:09:54;7.60;98.70
298;DHT22;133;49.626;9.680;2024-02-04T04:12:19;7.60;98.70
298;DHT22;133;49.626;9.680;2024-02-04T04:14:45;7.50;98.70
298;DHT22;133;49.626;9.680;2024-02-04T04:17:10;7.50;98.70
298;DHT22;133;49.626;9.680;2024-02-04T04:19:36;7.40;98.70
298;DHT22;133;49.626;9.680;2024-02-04T04:22:02;7.40;98.70
298;DHT22;133;49.626;9.680;2024-02-04T04:24:28;7.50;98.70
298;DHT22;133;49.626;9.680;2024-02-04T04:26:54;7.50;98.70
298;DHT22;133;49.626;9.680;2024-02-04T04:29:20;7.50;98.70
298;DHT22;133;49.626;9.680;2024-02-04T04:31:46;7.50;98.70
298;DHT22;133;49.626;9.680;2024-02-04T04:34:12;7.50;98.70
298;DHT22;133;49.626;9.680;2024-02-04T04:36:37;7.50;98.70
298;DHT22;133;49.626;9.680;2024-02-04T04:39:03;7.50;98.70
298;DHT22;133;49.626;9.680;2024-02-04T04:41:28;7.50;98.70
298;DHT22;133;49.626;9.680;2024-02-04T04:43:54;7.50;98.70
298;DHT22;133;49.626;9.680;2024-02-04T04:46:20;7.50;98.70
298;DHT22;133;49.626;9.680;2024-02-04T04:48:46;7.50;98.70
298;DHT22;133;49.626;9.680;2024-02-04T04:51:12;7.40;98.70
298;DHT22;133;49.626;9.680;2024-02-04T04:53:38;7.40;98.70
298;DHT22;133;49.626;9.680;2024-02-04T04:56:04;7.40;98.70
298;DHT22;133;49.626;9.680;2024-02-04T04:58:30;7.30;98.70
298;DHT22;133;49.626;9.680;2024-02-04T05:00:55;7.30;98.70
298;DHT22;133;49.626;9.680;2024-02-04T05:03:21;7.30;98.70
298;DHT22;133;49.626;9.680;2024-02-04T05:05:47;7.30;98.70
298;DHT22;133;49.626;9.680;2024-02-04T05:08:14;7.20;98.70
298;DHT22;133;49.626;9.680;2024-02-04T05:10:40;7.30;98.70
298;DHT22;133;49.626;9.680;2024-02-04T05:13:07;7.30;98.70
298;DHT22;133;49.626;9.680;2024-02-04T05:15:33;7.30;98.70
298;DHT22;133;49.626;9.680;2024-02-04T05:18:02;7.30;98.70
298;DHT22;133;49.626;9.680;2024-02-04T05:20:28;7.30;98.70
298;DHT22;133;49.626;9.680;2024-02-04T05:22:54;7.30;98.70
298;DHT22;133;49.626;9.680;2024-02-04T05:25:20;7.30;98.70
298;DHT22;133;49.626;9.680;2024-02-04T05:27:46;7.20;98.70
298;DHT22;133;49.626;9.680;2024-02-04T05:30:12;7.20;98.70
298;DHT22;133;49.626;9.680;2024-02-04T05:32:38;7.20;98.70
298;DHT22;133;49.626;9.680;2024-02-04T05:35:03;7.20;98.70
298;DHT22;133;49.626;9.680;2024-02-04T05:37:29;7.20;98.70
298;DHT22;133;49.626;9.680;2024-02-04T05:39:55;7.20;98.70
298;DHT22;133;49.626;9.680;2024-02-04T05:42:20;7.20;98.70
298;DHT22;133;49.626;9.680;2024-02-04T05:44:46;7.20;98.70
298;DHT22;133;49.626;9.680;2024-02-04T05:47:12;7.20;98.70
298;DHT22;133;49.626;9.680;2024-02-04T05:49:37;7.20;98.70
298;DHT22;133;49.626;9.680;2024-02-04T05:52:03;7.10;98.70
298;DHT22;133;49.626;9.680;2024-02-04T05:54:29;7.20;98.70
298;DHT22;133;49.626;9.680;2024-02-04T05:56:54;7.20;98.70
298;DHT22;133;49.626;9.680;2024-02-04T05:59:20;7.20;98.70
298;DHT22;133;49.626;9.680;2024-02-04T06:01:45;7.20;98.70
298;DHT22;133;49.626;9.680;2024-02-04T06:04:11;7.20;98.70
298;DHT22;133;49.626;9.680;2024-02-04T06:06:37;7.20;98.70
298;DHT22;133;49.626;9.680;2024-02-04T06:09:02;7.20;98.70
298;DHT22;133;49.626;9.680;2024-02-04T06:11:28;7.20;98.70
298;DHT22;133;49.626;9.680;2024-02-04T06:13:54;7.20;98.70
298;DHT22;133;49.626;9.680;2024-02-04T06:16:19;7.20;98.70
298;DHT22;133;49.626;9.680;2024-02-04T06:18:45;7.20;98.70
298;DHT22;133;49.626;9.680;2024-02-04T06:21:10;7.20;98.70
298;DHT22;133;49.626;9.680;2024-02-04T06:23:38;7.10;98.70
298;DHT22;133;49.626;9.680;2024-02-04T06:26:04;7.10;98.70
298;DHT22;133;49.626;9.680;2024-02-04T06:28:30;7.10;98.70
298;DHT22;133;49.626;9.680;2024-02-04T06:30:55;7.20;98.70
298;DHT22;133;49.626;9.680;2024-02-04T06:33:21;7.10;98.70
298;DHT22;133;49.626;9.680;2024-02-04T06:35:48;7.10;98.70
298;DHT22;133;49.626;9.680;2024-02-04T06:38:14;7.20;98.70
298;DHT22;133;49.626;9.680;2024-02-04T06:40:40;7.20;98.70
298;DHT22;133;49.626;9.680;2024-02-04T06:43:05;7.20;98.70
298;DHT22;133;49.626;9.680;2024-02-04T06:45:31;7.20;98.70
298;DHT22;133;49.626;9.680;2024-02-04T06:47:56;7.20;98.70
298;DHT22;133;49.626;9.680;2024-02-04T06:50:22;7.10;98.70
298;DHT22;133;49.626;9.680;2024-02-04T06:52:47;7.10;98.70
298;DHT22;133;49.626;9.680;2024-02-04T06:55:13;7.10;98.70
298;DHT22;133;49.626;9.680;2024-02-04T06:57:39;7.10;98.70
298;DHT22;133;49.626;9.680;2024-02-04T07:00:06;7.10;98.70
298;DHT22;133;49.626;9.680;2024-02-04T07:02:37;7.10;98.70
298;DHT22;133;49.626;9.680;2024-02-04T07:05:03;7.10;98.70
298;DHT22;133;49.626;9.680;2024-02-04T07:07:28;7.10;98.70
298;DHT22;133;49.626;9.680;2024-02-04T07:09:54;7.10;98.70
298;DHT22;133;49.626;9.680;2024-02-04T07:12:19;7.10;98.70
298;DHT22;133;49.626;9.680;2024-02-04T07:14:46;7.00;98.70
298;DHT22;133;49.626;9.680;2024-02-04T07:17:12;7.00;98.70
298;DHT22;133;49.626;9.680;2024-02-04T07:19:37;7.00;98.70
298;DHT22;133;49.626;9.680;2024-02-04T07:22:03;7.00;98.70
298;DHT22;133;49.626;9.680;2024-02-04T07:24:29;7.00;98.70
298;DHT22;133;49.626;9.680;2024-02-04T07:26:54;7.00;98.70
298;DHT22;133;49.626;9.680;2024-02-04T07:29:21;7.00;98.70
298;DHT22;133;49.626;9.680;2024-02-04T07:31:46;7.00;98.70
298;DHT22;133;49.626;9.680;2024-02-04T07:34:12;7.00;98.70
298;DHT22;133;49.626;9.680;2024-02-04T07:36:37;7.00;98.70
298;DHT22;133;49.626;9.680;2024-02-04T07:39:03;7.10;98.70
298;DHT22;133;49.626;9.680;2024-02-04T07:41:30;7.10;98.70
298;DHT22;133;49.626;9.680;2024-02-04T07:43:57;7.10;98.70
298;DHT22;133;49.626;9.680;2024-02-04T07:46:22;7.00;98.70
298;DHT22;133;49.626;9.680;2024-02-04T07:48:48;7.00;98.70
298;DHT22;133;49.626;9.680;2024-02-04T07:51:14;6.90;98.70
298;DHT22;133;49.626;9.680;2024-02-04T07:53:39;6.90;98.70
298;DHT22;133;49.626;9.680;2024-02-04T07:56:05;7.00;98.70
298;DHT22;133;49.626;9.680;2024-02-04T07:58:32;7.00;98.70
298;DHT22;133;49.626;9.680;2024-02-04T08:00:58;6.90;98.70
298;DHT22;133;49.626;9.680;2024-02-04T08:03:23;6.90;98.70
298;DHT22;133;49.626;9.680;2024-02-04T08:05:49;7.00;98.70
298;DHT22;133;49.626;9.680;2024-02-04T08:08:15;6.90;98.70
298;DHT22;133;49.626;9.680;2024-02-04T08:10:42;6.90;98.70
298;DHT22;133;49.626;9.680;2024-02-04T08:13:08;6.90;98.70
298;DHT22;133;49.626;9.680;2024-02-04T08:15:34;6.90;98.70
298;DHT22;133;49.626;9.680;2024-02-04T08:17:59;6.90;98.70
298;DHT22;133;49.626;9.680;2024-02-04T08:20:25;6.90;98.70
298;DHT22;133;49.626;9.680;2024-02-04T08:22:51;6.90;98.70
298;DHT22;133;49.626;9.680;2024-02-04T08:25:17;6.90;98.70
298;DHT22;133;49.626;9.680;2024-02-04T08:27:43;6.90;98.70
298;DHT22;133;49.626;9.680;2024-02-04T08:30:09;7.00;98.70
298;DHT22;133;49.626;9.680;2024-02-04T08:32:37;7.00;98.70
298;DHT22;133;49.626;9.680;2024-02-04T08:35:03;7.00;98.70
298;DHT22;133;49.626;9.680;2024-02-04T08:37:29;7.00;98.70
298;DHT22;133;49.626;9.680;2024-02-04T08:39:55;7.10;98.70
298;DHT22;133;49.626;9.680;2024-02-04T08:42:20;7.10;98.70
298;DHT22;133;49.626;9.680;2024-02-04T08:44:46;7.10;98.70
298;DHT22;133;49.626;9.680;2024-02-04T08:47:12;7.10;98.70
298;DHT22;133;49.626;9.680;2024-02-04T08:49:39;7.10;98.70
298;DHT22;133;49.626;9.680;2024-02-04T08:52:05;7.10;98.70
298;DHT22;133;49.626;9.680;2024-02-04T08:54:31;7.20;98.70
298;DHT22;133;49.626;9.680;2024-02-04T08:56:56;7.20;98.70
298;DHT22;133;49.626;9.680;2024-02-04T08:59:22;7.20;98.70
298;DHT22;133;49.626;9.680;2024-02-04T09:01:50;7.20;98.70
298;DHT22;133;49.626;9.680;2024-02-04T09:04:15;7.20;98.70
298;DHT22;133;49.626;9.680;2024-02-04T09:06:41;7.20;98.70
298;DHT22;133;49.626;9.680;2024-02-04T09:09:06;7.30;98.70
298;DHT22;133;49.626;9.680;2024-02-04T09:11:33;7.30;98.70
298;DHT22;133;49.626;9.680;2024-02-04T09:13:59;7.30;98.70
298;DHT22;133;49.626;9.680;2024-02-04T09:16:25;7.30;98.70
298;DHT22;133;49.626;9.680;2024-02-04T09:18:50;7.30;98.70
298;DHT22;133;49.626;9.680;2024-02-04T09:21:16;7.30;98.70
298;DHT22;133;49.626;9.680;2024-02-04T09:23:42;7.40;98.70
298;DHT22;133;49.626;9.680;2024-02-04T09:26:07;7.50;98.70
298;DHT22;133;49.626;9.680;2024-02-04T09:28:33;7.50;98.70
298;DHT22;133;49.626;9.680;2024-02-04T09:30:59;7.50;98.70
298;DHT22;133;49.626;9.680;2024-02-04T09:33:25;7.50;98.70
298;DHT22;133;49.626;9.680;2024-02-04T09:35:50;7.50;98.70
298;DHT22;133;49.626;9.680;2024-02-04T09:38:16;7.50;98.70
298;DHT22;133;49.626;9.680;2024-02-04T09:40:42;7.50;98.70
298;DHT22;133;49.626;9.680;2024-02-04T09:43:08;7.70;98.70
298;DHT22;133;49.626;9.680;2024-02-04T09:45:35;7.70;98.70
298;DHT22;133;49.626;9.680;2024-02-04T09:48:01;7.80;98.70
298;DHT22;133;49.626;9.680;2024-02-04T09:50:28;7.80;98.70
298;DHT22;133;49.626;9.680;2024-02-04T09:52:58;7.90;98.70
298;DHT22;133;49.626;9.680;2024-02-04T09:55:26;8.00;98.70
298;DHT22;133;49.626;9.680;2024-02-04T09:57:53;8.00;98.70
298;DHT22;133;49.626;9.680;2024-02-04T10:00:20;8.00;98.70
298;DHT22;133;49.626;9.680;2024-02-04T10:02:49;8.10;98.70
298;DHT22;133;49.626;9.680;2024-02-04T10:05:15;8.10;98.70
298;DHT22;133;49.626;9.680;2024-02-04T10:07:43;8.00;98.70
298;DHT22;133;49.626;9.680;2024-02-04T10:10:09;8.00;98.70
298;DHT22;133;49.626;9.680;2024-02-04T10:12:37;8.00;98.70
298;DHT22;133;49.626;9.680;2024-02-04T10:15:08;7.90;98.70
298;DHT22;133;49.626;9.680;2024-02-04T10:17:34;7.90;98.70
298;DHT22;133;49.626;9.680;2024-02-04T10:20:01;7.80;98.70
298;DHT22;133;49.626;9.680;2024-02-04T10:22:29;7.80;98.70
298;DHT22;133;49.626;9.680;2024-02-04T10:25:05;7.80;98.70
298;DHT22;133;49.626;9.680;2024-02-04T10:27:33;7.80;98.70
298;DHT22;133;49.626;9.680;2024-02-04T10:30:00;7.70;98.70
298;DHT22;133;49.626;9.680;2024-02-04T10:32:26;7.70;98.70
298;DHT22;133;49.626;9.680;2024-02-04T10:34:52;7.80;98.70
298;DHT22;133;49.626;9.680;2024-02-04T10:37:17;7.80;98.70
298;DHT22;133;49.626;9.680;2024-02-04T10:39:43;7.80;98.70
298;DHT22;133;49.626;9.680;2024-02-04T10:42:10;7.80;98.70
298;DHT22;133;49.626;9.680;2024-02-04T10:44:39;7.80;98.70
298;DHT22;133;49.626;9.680;2024-02-04T10:47:06;7.80;98.70
298;DHT22;133;49.626;9.680;2024-02-04T10:49:37;7.80;98.70
298;DHT22;133;49.626;9.680;2024-02-04T10:52:07;7.80;98.70
298;DHT22;133;49.626;9.680;2024-02-04T10:54:34;7.80;98.70
298;DHT22;133;49.626;9.680;2024-02-04T10:57:05;7.80;98.70
298;DHT22;133;49.626;9.680;2024-02-04T10:59:36;7.80;98.70
298;DHT22;133;49.626;9.680;2024-02-04T11:02:07;7.80;98.70
298;DHT22;133;49.626;9.680;2024-02-04T11:04:35;7.60;98.70
298;DHT22;133;49.626;9.680;2024-02-04T11:07:03;7.70;98.70
298;DHT22;133;49.626;9.680;2024-02-04T11:09:30;7.70;98.70
298;DHT22;133;49.626;9.680;2024-02-04T11:11:58;7.60;98.70
298;DHT22;133;49.626;9.680;2024-02-04T11:14:25;7.60;98.70
298;DHT22;133;49.626;9.680;2024-02-04T11:20:17;7.70;98.70
298;DHT22;133;49.626;9.680;2024-02-04T11:25:51;7.70;98.70
298;DHT22;133;49.626;9.680;2024-02-04T11:28:19;7.70;98.70
298;DHT22;133;49.626;9.680;2024-02-04T11:30:47;7.70;98.70
298;DHT22;133;49.626;9.680;2024-02-04T11:33:13;7.60;98.70
298;DHT22;133;49.626;9.680;2024-02-04T11:35:43;7.70;98.70
298;DHT22;133;49.626;9.680;2024-02-04T11:38:08;7.70;98.70
298;DHT22;133;49.626;9.680;2024-02-04T11:40:37;7.60;98.70
298;DHT22;133;49.626;9.680;2024-02-04T11:43:07;7.70;98.70
298;DHT22;133;49.626;9.680;2024-02-04T11:45:43;7.70;98.70
298;DHT22;133;49.626;9.680;2024-02-04T11:48:12;7.80;98.70
298;DHT22;133;49.626;9.680;2024-02-04T11:50:38;7.80;98.70
298;DHT22;133;49.626;9.680;2024-02-04T11:53:09;7.80;98.70
298;DHT22;133;49.626;9.680;2024-02-04T11:55:36;7.80;98.70
298;DHT22;133;49.626;9.680;2024-02-04T11:58:06;7.70;98.70
298;DHT22;133;49.626;9.680;2024-02-04T12:00:33;7.70;98.70
298;DHT22;133;49.626;9.680;2024-02-04T12:03:03;7.80;98.70
298;DHT22;133;49.626;9.680;2024-02-04T12:05:31;7.80;98.70
298;DHT22;133;49.626;9.680;2024-02-04T12:07:58;7.90;98.70
298;DHT22;133;49.626;9.680;2024-02-04T12:10:26;7.80;98.70
298;DHT22;133;49.626;9.680;2024-02-04T12:12:52;7.90;98.70
298;DHT22;133;49.626;9.680;2024-02-04T12:15:18;7.90;98.70
298;DHT22;133;49.626;9.680;2024-02-04T12:17:44;7.90;98.70
298;DHT22;133;49.626;9.680;2024-02-04T12:20:10;7.90;98.70
298;DHT22;133;49.626;9.680;2024-02-04T12:22:36;7.90;98.70
298;DHT22;133;49.626;9.680;2024-02-04T12:25:02;7.90;98.70
298;DHT22;133;49.626;9.680;2024-02-04T12:27:29;8.00;98.70
298;DHT22;133;49.626;9.680;2024-02-04T12:29:55;8.00;98.70
298;DHT22;133;49.626;9.680;2024-02-04T12:32:20;8.00;98.70
298;DHT22;133;49.626;9.680;2024-02-04T12:34:47;8.00;98.70
298;DHT22;133;49.626;9.680;2024-02-04T12:37:12;8.00;98.70
298;DHT22;133;49.626;9.680;2024-02-04T12:39:38;8.00;98.70
298;DHT22;133;49.626;9.680;2024-02-04T12:42:04;8.00;98.70
298;DHT22;133;49.626;9.680;2024-02-04T12:44:31;8.10;98.70
298;DHT22;133;49.626;9.680;2024-02-04T12:46:56;8.10;98.70
298;DHT22;133;49.626;9.680;2024-02-04T12:49:22;8.20;98.70
298;DHT22;133;49.626;9.680;2024-02-04T12:51:49;8.10;98.70
298;DHT22;133;49.626;9.680;2024-02-04T12:54:17;8.20;98.70
298;DHT22;133;49.626;9.680;2024-02-04T12:56:47;8.20;98.70
298;DHT22;133;49.626;9.680;2024-02-04T12:59:24;8.20;98.70
298;DHT22;133;49.626;9.680;2024-02-04T13:01:59;8.10;98.70
298;DHT22;133;49.626;9.680;2024-02-04T13:04:26;8.20;98.70
298;DHT22;133;49.626;9.680;2024-02-04T13:06:52;8.20;98.70
298;DHT22;133;49.626;9.680;2024-02-04T13:09:18;8.30;98.70
298;DHT22;133;49.626;9.680;2024-02-04T13:11:44;8.20;98.70
298;DHT22;133;49.626;9.680;2024-02-04T13:14:10;8.20;98.70
298;DHT22;133;49.626;9.680;2024-02-04T13:16:37;8.20;98.70
298;DHT22;133;49.626;9.680;2024-02-04T13:19:03;8.20;98.70
298;DHT22;133;49.626;9.680;2024-02-04T13:21:29;8.30;98.70
298;DHT22;133;49.626;9.680;2024-02-04T13:23:55;8.30;98.70
298;DHT22;133;49.626;9.680;2024-02-04T13:26:21;8.30;98.70
298;DHT22;133;49.626;9.680;2024-02-04T13:28:47;8.30;98.70
298;DHT22;133;49.626;9.680;2024-02-04T13:31:13;8.30;98.70
298;DHT22;133;49.626;9.680;2024-02-04T13:33:39;8.30;98.70
298;DHT22;133;49.626;9.680;2024-02-04T13:36:07;8.30;98.70
298;DHT22;133;49.626;9.680;2024-02-04T13:38:34;8.30;98.70
298;DHT22;133;49.626;9.680;2024-02-04T13:41:00;8.30;98.70
298;DHT22;133;49.626;9.680;2024-02-04T13:43:26;8.40;98.70
298;DHT22;133;49.626;9.680;2024-02-04T13:45:52;8.40;98.70
298;DHT22;133;49.626;9.680;2024-02-04T13:48:17;8.50;98.70
298;DHT22;133;49.626;9.680;2024-02-04T13:50:44;8.50;98.70
298;DHT22;133;49.626;9.680;2024-02-04T13:53:10;8.50;98.70
298;DHT22;133;49.626;9.680;2024-02-04T13:55:37;8.50;98.70
298;DHT22;133;49.626;9.680;2024-02-04T13:58:03;8.50;98.70
298;DHT22;133;49.626;9.680;2024-02-04T14:00:29;8.60;98.70
298;DHT22;133;49.626;9.680;2024-02-04T14:02:54;8.60;98.70
298;DHT22;133;49.626;9.680;2024-02-04T14:05:20;8.60;98.70
298;DHT22;133;49.626;9.680;2024-02-04T14:07:46;8.60;98.70
298;DHT22;133;49.626;9.680;2024-02-04T14:10:11;8.60;98.70
298;DHT22;133;49.626;9.680;2024-02-04T14:12:40;8.60;98.70
298;DHT22;133;49.626;9.680;2024-02-04T14:15:07;8.60;98.70
298;DHT22;133;49.626;9.680;2024-02-04T14:17:33;8.70;98.70
298;DHT22;133;49.626;9.680;2024-02-04T14:19:58;8.70;98.70
298;DHT22;133;49.626;9.680;2024-02-04T14:22:24;8.80;98.70
298;DHT22;133;49.626;9.680;2024-02-04T14:24:50;8.80;98.70
298;DHT22;133;49.626;9.680;2024-02-04T14:27:16;8.80;98.70
298;DHT22;133;49.626;9.680;2024-02-04T14:29:41;8.90;98.70
298;DHT22;133;49.626;9.680;2024-02-04T14:32:08;8.90;98.70
298;DHT22;133;49.626;9.680;2024-02-04T14:34:34;8.90;98.70
298;DHT22;133;49.626;9.680;2024-02-04T14:37:00;9.00;98.70
298;DHT22;133;49.626;9.680;2024-02-04T14:39:25;9.00;98.70
298;DHT22;133;49.626;9.680;2024-02-04T14:41:51;9.00;98.70
298;DHT22;133;49.626;9.680;2024-02-04T14:44:20;9.00;98.70
298;DHT22;133;49.626;9.680;2024-02-04T14:46:45;9.10;98.70
298;DHT22;133;49.626;9.680;2024-02-04T14:49:11;9.00;98.70
298;DHT22;133;49.626;9.680;2024-02-04T14:51:40;9.00;98.70
298;DHT22;133;49.626;9.680;2024-02-04T14:54:07;9.00;98.70
298;DHT22;133;49.626;9.680;2024-02-04T14:56:38;9.00;98.70
298;DHT22;133;49.626;9.680;2024-02-04T14:59:05;9.00;98.70
298;DHT22;133;49.626;9.680;2024-02-04T15:01:32;9.00;98.70
298;DHT22;133;49.626;9.680;2024-02-04T15:03:57;8.90;98.70
298;DHT22;133;49.626;9.680;2024-02-04T15:06:23;9.00;98.70
298;DHT22;133;49.626;9.680;2024-02-04T15:08:48;9.00;98.70
298;DHT22;133;49.626;9.680;2024-02-04T15:11:14;9.10;98.70
298;DHT22;133;49.626;9.680;2024-02-04T15:13:40;9.10;98.70
298;DHT22;133;49.626;9.680;2024-02-04T15:16:06;9.10;98.70
298;DHT22;133;49.626;9.680;2024-02-04T15:18:33;9.10;98.70
298;DHT22;133;49.626;9.680;2024-02-04T15:20:59;9.10;98.70
298;DHT22;133;49.626;9.680;2024-02-04T15:23:25;9.10;98.70
298;DHT22;133;49.626;9.680;2024-02-04T15:25:52;9.10;98.70
298;DHT22;133;49.626;9.680;2024-02-04T15:28:18;9.10;98.70
298;DHT22;133;49.626;9.680;2024-02-04T15:30:44;9.10;98.70
298;DHT22;133;49.626;9.680;2024-02-04T15:33:11;9.10;98.70
298;DHT22;133;49.626;9.680;2024-02-04T15:35:37;9.10;98.70
298;DHT22;133;49.626;9.680;2024-02-04T15:38:03;9.00;98.70
298;DHT22;133;49.626;9.680;2024-02-04T15:40:29;9.00;98.70
298;DHT22;133;49.626;9.680;2024-02-04T15:42:54;9.00;98.70
298;DHT22;133;49.626;9.680;2024-02-04T15:45:20;9.00;98.70
298;DHT22;133;49.626;9.680;2024-02-04T15:47:50;9.00;98.70
298;DHT22;133;49.626;9.680;2024-02-04T15:50:20;9.00;98.70
298;DHT22;133;49.626;9.680;2024-02-04T15:52:50;9.00;98.70
298;DHT22;133;49.626;9.680;2024-02-04T15:55:16;9.00;98.70
298;DHT22;133;49.626;9.680;2024-02-04T15:57:48;9.00;98.70
298;DHT22;133;49.626;9.680;2024-02-04T16:00:15;8.90;98.70
298;DHT22;133;49.626;9.680;2024-02-04T16:02:51;8.90;98.70
298;DHT22;133;49.626;9.680;2024-02-04T16:05:18;8.80;98.70
298;DHT22;133;49.626;9.680;2024-02-04T16:07:44;8.80;98.70
298;DHT22;133;49.626;9.680;2024-02-04T16:10:11;8.80;98.70
298;DHT22;133;49.626;9.680;2024-02-04T16:12:37;8.70;98.70
298;DHT22;133;49.626;9.680;2024-02-04T16:15:04;8.70;98.70
298;DHT22;133;49.626;9.680;2024-02-04T16:17:37;8.70;98.70
298;DHT22;133;49.626;9.680;2024-02-04T16:20:05;8.70;98.70
298;DHT22;133;49.626;9.680;2024-02-04T16:22:31;8.70;98.70
298;DHT22;133;49.626;9.680;2024-02-04T16:24:57;8.70;98.70
298;DHT22;133;49.626;9.680;2024-02-04T16:27:22;8.60;98.70
298;DHT22;133;49.626;9.680;2024-02-04T16:29:48;8.60;98.70
298;DHT22;133;49.626;9.680;2024-02-04T16:32:14;8.60;98.70
298;DHT22;133;49.626;9.680;2024-02-04T16:34:40;8.60;98.70
298;DHT22;133;49.626;9.680;2024-02-04T16:37:06;8.70;98.70
298;DHT22;133;49.626;9.680;2024-02-04T16:39:35;8.60;98.70
298;DHT22;133;49.626;9.680;2024-02-04T16:42:01;8.60;98.70
298;DHT22;133;49.626;9.680;2024-02-04T16:44:27;8.70;98.70
298;DHT22;133;49.626;9.680;2024-02-04T16:46:54;8.60;98.70
298;DHT22;133;49.626;9.680;2024-02-04T16:49:27;8.60;98.70
298;DHT22;133;49.626;9.680;2024-02-04T16:51:53;8.60;98.70
298;DHT22;133;49.626;9.680;2024-02-04T16:54:18;8.60;98.70